Time;durP1;ratioP1;P1;durP2;ratioP2;P2;SDS_P1;SDS_P2;PMS_P1;PMS_P2;Temp;Humidity;BMP_temperature;BMP_pressure;BME280_temperature;BME280_humidity;BME280_pressure;Samples;Min_cycle;Max_cycle;Signal;HPM_P1;HPM_P2
2022/06/28 00:01:52;;;;;;;13.50;11.15;;;14.20;99.90;;;;;;5072930;28;20394;-48
2022/06/28 00:04:18;;;;;;;10.13;8.85;;;14.20;99.90;;;;;;5073718;28;20055;-50
2022/06/28 00:06:44;;;;;;;9.98;8.13;;;14.10;99.90;;;;;;5073742;28;20043;-49
2022/06/28 00:09:11;;;;;;;11.85;9.25;;;14.20;99.90;;;;;;5073470;28;20036;-47
2022/06/28 00:11:38;;;;;;;9.48;7.75;;;14.20;99.90;;;;;;5073522;28;20136;-50
2022/06/28 00:16:04;;;;;;;11.07;8.57;;;14.20;99.90;;;;;;5073414;28;20041;-49
2022/06/28 00:16:49;;;;;;;11.23;8.63;;;14.10;99.90;;;;;;5073633;28;20056;-49
2022/06/28 00:19:15;;;;;;;12.82;9.20;;;14.10;99.90;;;;;;5073553;28;20063;-49
2022/06/28 00:21:40;;;;;;;9.73;7.78;;;14.10;99.90;;;;;;5073447;28;20029;-47
2022/06/28 00:24:06;;;;;;;9.25;8.30;;;14.10;99.90;;;;;;5073487;28;20040;-51
2022/06/28 00:26:32;;;;;;;12.95;7.65;;;14.10;99.90;;;;;;5073441;28;20473;-49
2022/06/28 00:28:57;;;;;;;9.13;7.85;;;13.90;99.90;;;;;;5072659;28;20036;-50
2022/06/28 00:31:25;;;;;;;10.98;9.30;;;13.90;99.90;;;;;;5073107;28;20080;-51
2022/06/28 00:33:51;;;;;;;9.90;7.93;;;13.80;99.90;;;;;;5071967;28;20048;-50
2022/06/28 00:36:17;;;;;;;8.68;7.78;;;13.80;99.90;;;;;;5073066;28;20051;-48
2022/06/28 00:38:42;;;;;;;9.80;8.50;;;13.90;99.90;;;;;;5073133;28;20033;-46
2022/06/28 00:41:08;;;;;;;11.70;9.48;;;13.80;99.90;;;;;;5072861;28;20044;-50
2022/06/28 00:43:35;;;;;;;11.80;9.63;;;13.80;99.90;;;;;;5073233;28;20044;-47
2022/06/28 00:46:02;;;;;;;9.45;8.50;;;13.80;99.90;;;;;;5072007;28;20042;-48
2022/06/28 00:48:28;;;;;;;9.88;8.70;;;13.80;99.90;;;;;;5071891;28;20052;-47
2022/06/28 00:50:54;;;;;;;9.70;8.80;;;13.70;99.90;;;;;;5072672;28;20123;-50
2022/06/28 00:53:20;;;;;;;11.32;8.73;;;13.70;99.90;;;;;;5072673;28;20128;-48
2022/06/28 00:55:46;;;;;;;14.20;9.60;;;13.70;99.90;;;;;;5071436;28;20482;-51
2022/06/28 00:58:13;;;;;;;10.57;9.48;;;13.70;99.90;;;;;;5072666;28;20041;-46
2022/06/28 01:00:43;;;;;;;13.05;9.95;;;13.60;99.90;;;;;;5072826;28;20391;-46
2022/06/28 01:03:13;;;;;;;11.60;9.38;;;13.60;99.90;;;;;;5072766;28;20048;-51
2022/06/28 01:05:41;;;;;;;13.90;9.13;;;13.60;99.90;;;;;;5072549;28;20083;-50
2022/06/28 01:08:07;;;;;;;10.50;8.60;;;13.60;99.90;;;;;;5072430;28;20036;-47
2022/06/28 01:10:35;;;;;;;11.90;8.15;;;13.60;99.90;;;;;;5072691;28;20037;-49
2022/06/28 01:13:01;;;;;;;9.55;8.48;;;13.60;99.90;;;;;;5072379;28;20092;-48
2022/06/28 01:15:27;;;;;;;14.65;9.27;;;13.50;99.90;;;;;;5072291;28;20089;-48
2022/06/28 01:17:53;;;;;;;11.25;9.93;;;13.50;99.90;;;;;;5072183;28;20033;-48
2022/06/28 01:20:19;;;;;;;11.45;9.35;;;13.50;99.90;;;;;;5072639;28;20040;-49
2022/06/28 01:22:45;;;;;;;12.40;9.45;;;13.40;99.90;;;;;;5072142;28;20032;-49
2022/06/28 01:25:11;;;;;;;11.43;9.07;;;13.50;99.90;;;;;;5072274;28;20051;-48
2022/06/28 01:27:38;;;;;;;13.52;9.75;;;13.50;99.90;;;;;;5070940;28;20129;-46
2022/06/28 01:30:05;;;;;;;11.95;9.02;;;13.60;99.90;;;;;;5071990;28;20041;-48
2022/06/28 01:32:32;;;;;;;13.27;9.90;;;13.50;99.90;;;;;;5072183;28;20128;-48
2022/06/28 01:34:59;;;;;;;15.77;10.07;;;13.60;99.90;;;;;;5071809;28;20513;-48
2022/06/28 01:37:25;;;;;;;10.52;9.43;;;13.50;99.90;;;;;;5071986;28;20094;-46
2022/06/28 01:39:51;;;;;;;9.65;8.77;;;13.50;99.90;;;;;;5071464;28;20028;-47
2022/06/28 01:42:17;;;;;;;11.00;9.70;;;13.50;99.90;;;;;;5072169;28;20032;-47
2022/06/28 01:44:45;;;;;;;11.90;9.40;;;13.60;99.90;;;;;;5071927;28;20051;-47
2022/06/28 01:47:12;;;;;;;10.32;9.23;;;13.50;99.90;;;;;;5072019;28;20045;-47
2022/06/28 01:49:38;;;;;;;13.07;9.10;;;13.50;99.90;;;;;;5071848;28;20051;-48
2022/06/28 01:52:04;;;;;;;10.55;9.45;;;13.40;99.90;;;;;;5072148;28;20048;-47
2022/06/28 01:54:30;;;;;;;13.50;9.75;;;13.40;99.90;;;;;;5070547;28;20049;-47
2022/06/28 01:56:56;;;;;;;12.10;8.77;;;13.40;99.90;;;;;;5072081;28;20588;-46
2022/06/28 01:59:23;;;;;;;11.15;9.52;;;13.40;99.90;;;;;;5072096;28;20414;-46
2022/06/28 02:01:50;;;;;;;14.23;9.05;;;13.40;99.90;;;;;;5072086;28;20061;-46
2022/06/28 02:04:29;;;;;;;10.98;9.35;;;13.40;99.90;;;;;;5071628;28;20111;-46
2022/06/28 02:06:55;;;;;;;16.30;9.95;;;13.40;99.90;;;;;;5071746;28;20036;-46
2022/06/28 02:09:21;;;;;;;11.07;8.85;;;13.30;99.90;;;;;;5071847;28;20032;-48
2022/06/28 02:11:47;;;;;;;13.23;9.23;;;13.30;99.90;;;;;;5071765;28;20086;-50
2022/06/28 02:14:12;;;;;;;10.05;9.02;;;13.30;99.90;;;;;;5071451;28;20115;-48
2022/06/28 02:16:38;;;;;;;8.80;7.90;;;13.20;99.90;;;;;;5071515;28;20032;-50
2022/06/28 02:19:04;;;;;;;10.93;8.40;;;13.30;99.90;;;;;;5071356;28;20043;-49
2022/06/28 02:21:37;;;;;;;16.30;9.45;;;13.30;99.90;;;;;;5071511;28;20371;-47
2022/06/28 02:24:04;;;;;;;16.77;9.45;;;13.10;99.90;;;;;;5071850;28;20040;-50
2022/06/28 02:26:32;;;;;;;16.02;9.88;;;13.10;99.90;;;;;;5071536;28;20048;-51
2022/06/28 02:28:59;;;;;;;11.15;9.95;;;13.10;99.90;;;;;;5071520;28;20447;-50
2022/06/28 02:31:25;;;;;;;11.00;8.85;;;13.10;99.90;;;;;;5071180;28;20132;-51
2022/06/28 02:33:50;;;;;;;14.45;9.50;;;13.10;99.90;;;;;;5071627;28;20538;-51
2022/06/28 02:41:45;;;;;;;10.93;8.95;;;13.00;99.90;;;;;;5071394;28;20076;-51
2022/06/28 02:44:11;;;;;;;10.85;8.77;;;13.10;99.90;;;;;;5071580;28;20368;-47
2022/06/28 02:46:38;;;;;;;10.40;8.82;;;13.00;99.90;;;;;;5071595;28;20036;-48
2022/06/28 02:49:04;;;;;;;17.38;10.35;;;13.00;99.90;;;;;;5071278;28;20044;-48
2022/06/28 02:51:29;;;;;;;13.45;9.82;;;13.00;99.90;;;;;;5072613;28;20051;-49
2022/06/28 02:53:55;;;;;;;11.10;9.93;;;13.00;99.90;;;;;;5074956;28;20036;-51
2022/06/28 02:56:21;;;;;;;14.40;10.27;;;12.90;99.90;;;;;;5074053;28;20115;-51
2022/06/28 02:58:48;;;;;;;18.02;10.65;;;13.00;99.90;;;;;;5074995;28;20517;-47
2022/06/28 03:01:15;;;;;;;14.73;10.32;;;13.00;99.90;;;;;;5075323;28;20051;-50
2022/06/28 03:03:41;;;;;;;10.15;9.15;;;13.00;99.90;;;;;;5075052;28;20047;-50
2022/06/28 03:06:06;;;;;;;17.23;11.50;;;13.00;99.90;;;;;;5074827;28;20072;-47
2022/06/28 03:08:32;;;;;;;14.80;9.82;;;12.90;99.90;;;;;;5074699;28;20219;-47
2022/06/28 03:10:58;;;;;;;11.43;9.10;;;13.00;99.90;;;;;;5074684;28;20379;-51
2022/06/28 03:13:24;;;;;;;13.07;9.95;;;12.90;99.90;;;;;;5074483;28;20048;-51
2022/06/28 03:15:50;;;;;;;13.40;10.60;;;13.00;99.90;;;;;;5074684;28;20032;-50
2022/06/28 03:18:16;;;;;;;13.63;9.60;;;12.90;99.90;;;;;;5074719;28;20494;-46
2022/06/28 03:20:41;;;;;;;16.95;10.50;;;12.90;99.90;;;;;;5074625;28;20493;-48
2022/06/28 03:23:07;;;;;;;16.17;9.75;;;12.90;99.90;;;;;;5074495;28;20028;-49
2022/06/28 03:25:33;;;;;;;11.82;10.23;;;12.90;99.90;;;;;;5074233;28;20044;-50
2022/06/28 03:27:59;;;;;;;12.98;9.50;;;13.00;99.90;;;;;;5074557;28;20075;-48
2022/06/28 03:30:25;;;;;;;15.60;10.05;;;12.90;99.90;;;;;;5074308;28;20052;-46
2022/06/28 03:32:50;;;;;;;13.75;9.35;;;12.90;99.90;;;;;;5074519;28;20111;-48
2022/06/28 03:35:16;;;;;;;11.60;10.05;;;12.90;99.90;;;;;;5074169;28;20035;-48
2022/06/28 03:37:42;;;;;;;11.48;10.10;;;12.90;99.90;;;;;;5074293;28;20047;-50
2022/06/28 03:40:08;;;;;;;15.10;10.10;;;12.90;99.90;;;;;;5074096;28;20036;-49
2022/06/28 03:42:34;;;;;;;13.55;9.82;;;12.90;99.90;;;;;;5074097;28;20478;-48
2022/06/28 03:44:59;;;;;;;12.38;9.70;;;12.90;99.90;;;;;;5074408;28;20051;-47
2022/06/28 03:47:25;;;;;;;11.48;9.18;;;12.90;99.90;;;;;;5074147;28;20040;-46
2022/06/28 03:49:51;;;;;;;10.85;9.70;;;13.00;99.90;;;;;;5074212;28;20036;-47
2022/06/28 03:52:17;;;;;;;11.73;9.40;;;13.00;99.90;;;;;;5074006;28;20070;-49
2022/06/28 03:54:42;;;;;;;12.15;9.55;;;13.00;99.90;;;;;;5073791;28;20051;-46
2022/06/28 03:57:09;;;;;;;18.25;10.38;;;13.10;99.90;;;;;;5073888;28;20032;-47
2022/06/28 03:59:36;;;;;;;11.93;9.88;;;13.10;99.90;;;;;;5073909;28;20090;-47
2022/06/28 04:02:04;;;;;;;14.73;9.50;;;13.10;99.90;;;;;;5073737;28;20044;-45
2022/06/28 04:04:30;;;;;;;13.68;9.35;;;13.10;99.90;;;;;;5073011;28;20123;-47
2022/06/28 04:06:55;;;;;;;13.75;10.07;;;13.10;99.90;;;;;;5073502;28;20048;-46
2022/06/28 04:09:21;;;;;;;16.48;9.05;;;13.10;99.90;;;;;;5073559;28;20048;-47
2022/06/28 04:11:47;;;;;;;14.13;10.05;;;13.00;99.90;;;;;;5073868;28;20036;-46
2022/06/28 04:14:13;;;;;;;10.73;9.38;;;13.00;99.90;;;;;;5073551;28;20487;-49
2022/06/28 04:16:41;;;;;;;12.85;9.48;;;13.00;99.90;;;;;;5072358;28;20044;-50
2022/06/28 04:19:07;;;;;;;9.88;8.73;;;13.00;99.90;;;;;;5073351;28;20033;-47
2022/06/28 04:21:33;;;;;;;14.00;9.90;;;13.10;99.90;;;;;;5073005;28;20033;-50
2022/06/28 04:23:58;;;;;;;10.18;8.43;;;12.90;99.90;;;;;;5071685;28;20059;-47
2022/06/28 04:26:24;;;;;;;14.63;8.88;;;13.10;99.90;;;;;;5071794;28;20040;-49
2022/06/28 04:28:50;;;;;;;17.73;10.45;;;13.00;99.90;;;;;;5072958;28;20048;-47
2022/06/28 04:31:15;;;;;;;10.77;9.68;;;13.00;99.90;;;;;;5073123;28;20407;-47
2022/06/28 04:33:41;;;;;;;11.20;8.65;;;13.10;99.90;;;;;;5073018;28;20090;-49
2022/06/28 04:36:07;;;;;;;15.27;9.15;;;13.10;99.90;;;;;;5073289;28;20037;-46
2022/06/28 04:38:33;;;;;;;20.17;10.23;;;13.10;99.90;;;;;;5073047;28;20124;-46
2022/06/28 04:40:59;;;;;;;14.00;8.40;;;13.10;99.90;;;;;;5072786;28;20470;-47
2022/06/28 04:43:25;;;;;;;11.10;9.52;;;13.20;99.90;;;;;;5073391;28;20040;-49
2022/06/28 04:45:51;;;;;;;10.20;8.00;;;13.20;99.90;;;;;;5072966;28;20037;-49
2022/06/28 04:48:17;;;;;;;11.55;8.02;;;13.30;99.90;;;;;;5072765;28;20502;-51
2022/06/28 04:50:42;;;;;;;16.58;9.40;;;13.40;99.90;;;;;;5072707;28;20037;-49
2022/06/28 04:53:08;;;;;;;11.68;8.45;;;13.40;99.90;;;;;;5072856;28;20068;-50
2022/06/28 04:55:34;;;;;;;11.77;8.40;;;13.50;99.90;;;;;;5072617;28;20036;-48
2022/06/28 04:57:59;;;;;;;9.57;8.07;;;13.40;99.90;;;;;;5072895;28;20086;-49
2022/06/28 05:00:27;;;;;;;11.43;8.50;;;13.60;99.90;;;;;;5072608;28;20075;-49
2022/06/28 05:02:52;;;;;;;13.00;8.20;;;13.60;99.90;;;;;;5072603;28;20040;-47
2022/06/28 05:05:18;;;;;;;15.02;8.27;;;13.60;99.90;;;;;;5072370;28;20391;-47
2022/06/28 05:07:44;;;;;;;13.25;8.27;;;13.70;99.90;;;;;;5072363;28;20033;-50
2022/06/28 05:10:09;;;;;;;9.93;8.27;;;13.70;99.90;;;;;;5072576;28;20124;-47
2022/06/28 05:12:35;;;;;;;13.95;8.45;;;13.80;99.90;;;;;;5072445;28;20045;-50
2022/06/28 05:15:01;;;;;;;11.48;8.95;;;13.90;99.90;;;;;;5072093;28;20036;-50
2022/06/28 05:17:26;;;;;;;13.00;7.70;;;13.80;99.90;;;;;;5072398;28;20490;-47
2022/06/28 05:19:52;;;;;;;11.32;7.47;;;14.00;99.90;;;;;;5072562;28;20387;-50
2022/06/28 05:22:18;;;;;;;10.13;7.10;;;14.00;99.90;;;;;;5072245;28;20063;-50
2022/06/28 05:24:43;;;;;;;15.55;8.50;;;14.10;99.90;;;;;;5072440;28;20055;-49
2022/06/28 05:27:09;;;;;;;10.68;7.82;;;14.10;99.90;;;;;;5072513;28;20045;-46
2022/06/28 05:29:35;;;;;;;14.65;7.82;;;14.10;99.90;;;;;;5072258;28;20060;-47
2022/06/28 05:32:00;;;;;;;12.90;7.38;;;14.20;99.90;;;;;;5071870;28;20144;-46
2022/06/28 05:34:26;;;;;;;13.50;9.18;;;14.30;99.90;;;;;;5071933;28;20048;-51
2022/06/28 05:36:52;;;;;;;13.00;8.10;;;14.30;99.90;;;;;;5071538;28;20060;-46
2022/06/28 05:39:17;;;;;;;13.07;8.07;;;14.50;99.90;;;;;;5072251;28;20453;-49
2022/06/28 05:41:43;;;;;;;14.73;9.13;;;14.60;99.90;;;;;;5070341;28;20060;-49
2022/06/28 05:44:11;;;;;;;12.02;8.20;;;14.60;99.90;;;;;;5072027;28;20036;-51
2022/06/28 05:46:39;;;;;;;14.05;9.00;;;14.70;99.90;;;;;;5072245;28;20040;-50
2022/06/28 05:49:08;;;;;;;12.70;8.90;;;14.80;99.90;;;;;;5071957;28;20060;-50
2022/06/28 05:51:35;;;;;;;11.98;7.40;;;14.90;99.90;;;;;;5071627;28;20062;-51
2022/06/28 05:54:01;;;;;;;11.70;8.02;;;15.00;99.90;;;;;;5072009;28;20059;-50
2022/06/28 05:56:27;;;;;;;11.43;8.05;;;15.10;99.90;;;;;;5071897;28;20037;-49
2022/06/28 05:58:53;;;;;;;12.63;8.25;;;15.10;99.90;;;;;;5072022;28;20047;-45
2022/06/28 06:01:20;;;;;;;13.93;7.60;;;15.20;99.90;;;;;;5071687;28;20457;-47
2022/06/28 06:03:46;;;;;;;12.23;7.47;;;15.30;99.90;;;;;;5071639;28;20041;-48
2022/06/28 06:06:12;;;;;;;10.75;6.95;;;15.30;99.90;;;;;;5072066;28;20136;-45
2022/06/28 06:08:37;;;;;;;8.43;6.88;;;15.40;99.90;;;;;;5071782;28;20534;-46
2022/06/28 06:11:07;;;;;;;10.73;6.47;;;15.40;99.90;;;;;;5071842;28;20036;-50
2022/06/28 06:13:36;;;;;;;10.43;6.13;;;15.60;99.90;;;;;;5071570;28;20048;-49
2022/06/28 06:16:02;;;;;;;19.65;7.93;;;15.60;99.90;;;;;;5071639;28;20037;-47
2022/06/28 06:18:28;;;;;;;13.60;7.85;;;15.80;99.90;;;;;;5071427;28;20115;-46
2022/06/28 06:20:53;;;;;;;17.27;7.70;;;15.90;99.90;;;;;;5071737;28;20123;-48
2022/06/28 06:23:19;;;;;;;12.70;6.45;;;16.10;99.90;;;;;;5071699;28;20139;-51
2022/06/28 06:25:45;;;;;;;14.02;7.35;;;16.20;99.90;;;;;;5071670;28;20067;-46
2022/06/28 06:28:10;;;;;;;10.98;6.50;;;16.30;99.90;;;;;;5075394;28;20044;-46
2022/06/28 06:30:36;;;;;;;8.38;6.13;;;16.50;99.90;;;;;;5075290;28;20083;-45
2022/06/28 06:33:02;;;;;;;8.52;5.25;;;16.60;99.90;;;;;;5074387;28;20040;-46
2022/06/28 06:35:28;;;;;;;10.05;5.70;;;16.70;99.90;;;;;;5075235;28;20479;-49
2022/06/28 06:38:00;;;;;;;10.50;4.85;;;17.00;99.90;;;;;;5075623;28;20036;-49
2022/06/28 06:40:27;;;;;;;9.90;5.05;;;17.00;99.90;;;;;;5075222;28;20072;-48
2022/06/28 06:42:52;;;;;;;9.18;4.78;;;17.10;99.90;;;;;;5075294;28;20041;-46
2022/06/28 06:45:18;;;;;;;7.03;3.67;;;17.30;99.90;;;;;;5075221;28;20040;-47
2022/06/28 06:47:44;;;;;;;10.23;4.25;;;17.50;99.90;;;;;;5075020;28;20086;-50
2022/06/28 06:50:10;;;;;;;8.75;4.05;;;17.70;99.90;;;;;;5075262;28;20372;-48
2022/06/28 06:52:37;;;;;;;6.00;3.92;;;17.70;99.90;;;;;;5073827;28;20493;-48
2022/06/28 06:55:03;;;;;;;12.05;4.88;;;17.80;99.90;;;;;;5074419;28;20151;-46
2022/06/28 06:57:29;;;;;;;8.18;3.60;;;18.00;99.90;;;;;;5074112;28;20567;-47
2022/06/28 06:59:55;;;;;;;7.95;4.03;;;18.10;99.90;;;;;;5075094;28;20519;-45
2022/06/28 07:02:21;;;;;;;8.95;3.45;;;18.30;99.90;;;;;;5074829;28;20033;-46
2022/06/28 07:04:47;;;;;;;10.68;3.90;;;18.30;99.90;;;;;;5075126;28;20490;-46
2022/06/28 07:07:12;;;;;;;8.60;3.72;;;18.60;99.90;;;;;;5073490;28;20048;-50
2022/06/28 07:09:38;;;;;;;8.90;3.72;;;19.10;99.90;;;;;;5074797;28;20047;-48
2022/06/28 07:12:04;;;;;;;8.02;3.30;;;19.20;99.90;;;;;;5075026;28;20514;-46
2022/06/28 07:14:30;;;;;;;7.47;3.20;;;19.60;99.90;;;;;;5073917;28;20056;-48
2022/06/28 07:16:56;;;;;;;7.25;2.97;;;19.90;99.90;;;;;;5074712;28;20402;-50
2022/06/28 07:19:21;;;;;;;7.95;3.75;;;19.70;99.90;;;;;;5073677;28;20028;-57
2022/06/28 07:21:47;;;;;;;13.68;3.20;;;20.30;99.90;;;;;;5073857;28;20040;-57
2022/06/28 07:24:13;;;;;;;6.00;2.58;;;21.00;99.90;;;;;;5074473;28;20033;-56
2022/06/28 07:26:39;;;;;;;8.30;2.67;;;21.60;99.90;;;;;;5074675;28;20494;-57
2022/06/28 07:29:05;;;;;;;10.15;3.10;;;22.40;99.90;;;;;;5074231;28;20040;-57
2022/06/28 07:31:31;;;;;;;7.93;2.58;;;22.30;99.90;;;;;;5073853;28;20053;-57
2022/06/28 07:33:57;;;;;;;12.63;2.70;;;22.20;99.90;;;;;;5072781;28;20052;-57
2022/06/28 07:36:24;;;;;;;10.85;2.72;;;22.30;99.90;;;;;;5074202;28;20041;-57
2022/06/28 07:38:50;;;;;;;6.90;2.13;;;23.20;99.90;;;;;;5072768;28;20443;-57
2022/06/28 07:41:15;;;;;;;10.90;2.85;;;23.50;99.90;;;;;;5074009;28;20112;-58
2022/06/28 07:43:41;;;;;;;14.40;2.47;;;23.40;99.90;;;;;;5074312;28;20040;-57
2022/06/28 07:46:07;;;;;;;5.43;2.05;;;23.40;99.90;;;;;;5073899;28;20048;-56
2022/06/28 07:48:33;;;;;;;7.47;1.83;;;22.90;99.90;;;;;;5074020;28;20036;-56
2022/06/28 07:53:43;;;;;;;8.32;1.90;;;23.60;99.90;;;;;;5073769;28;20045;-59
2022/06/28 07:56:09;;;;;;;8.27;1.70;;;23.50;99.90;;;;;;5073713;28;20115;-56
2022/06/28 07:58:36;;;;;;;8.90;2.28;;;23.30;99.90;;;;;;5073604;28;20041;-57
2022/06/28 08:01:02;;;;;;;5.95;1.83;;;22.70;99.90;;;;;;5072575;28;20068;-57
2022/06/28 08:03:27;;;;;;;7.93;1.88;;;23.30;99.90;;;;;;5073688;28;20068;-57
2022/06/28 08:05:53;;;;;;;8.02;1.45;;;24.00;99.90;;;;;;5073704;28;20445;-56
2022/06/28 08:08:19;;;;;;;4.78;1.30;;;24.50;99.90;;;;;;5073463;28;20037;-58
2022/06/28 08:10:45;;;;;;;4.32;1.67;;;25.10;99.90;;;;;;5073480;28;20043;-57
2022/06/28 08:13:12;;;;;;;7.20;1.30;;;25.60;99.90;;;;;;5073197;28;20037;-57
2022/06/28 08:15:40;;;;;;;5.93;1.52;;;26.20;99.90;;;;;;5073408;28;20451;-57
2022/06/28 08:18:06;;;;;;;7.53;1.65;;;26.70;99.90;;;;;;5073422;28;20040;-56
2022/06/28 08:20:32;;;;;;;5.93;1.65;;;27.00;99.90;;;;;;5073267;28;20033;-57
2022/06/28 08:22:57;;;;;;;6.82;1.75;;;27.20;99.90;;;;;;5073209;28;20047;-58
2022/06/28 08:25:23;;;;;;;5.53;1.13;;;27.20;99.90;;;;;;5073071;28;20441;-57
2022/06/28 08:27:49;;;;;;;4.22;1.10;;;27.00;99.90;;;;;;5073007;28;20143;-58
2022/06/28 08:30:14;;;;;;;9.98;2.22;;;27.00;99.90;;;;;;5073179;28;20129;-55
2022/06/28 08:32:40;;;;;;;11.15;1.80;;;27.50;99.90;;;;;;5073510;28;20052;-56
2022/06/28 08:35:06;;;;;;;7.55;1.42;;;27.70;99.90;;;;;;5072743;28;20044;-57
2022/06/28 08:37:32;;;;;;;6.43;1.45;;;28.00;99.90;;;;;;5072965;28;20041;-56
2022/06/28 08:39:58;;;;;;;4.57;1.27;;;28.30;99.90;;;;;;5072765;28;20068;-57
2022/06/28 08:42:30;;;;;;;4.22;1.27;;;28.20;99.80;;;;;;5072667;28;20047;-56
2022/06/28 08:45:00;;;;;;;5.05;1.30;;;29.00;99.90;;;;;;5073044;28;20147;-56
2022/06/28 08:47:32;;;;;;;5.45;1.40;;;29.30;99.90;;;;;;5072820;28;20047;-56
2022/06/28 08:50:03;;;;;;;4.05;1.20;;;29.00;97.90;;;;;;5072257;28;20173;-57
2022/06/28 08:52:33;;;;;;;5.70;1.23;;;29.30;98.10;;;;;;5071440;28;20040;-56
2022/06/28 08:55:00;;;;;;;6.10;1.23;;;29.60;99.50;;;;;;5072339;28;20051;-57
2022/06/28 08:57:30;;;;;;;9.98;2.03;;;29.80;98.70;;;;;;5072550;28;20047;-57
2022/06/28 08:59:57;;;;;;;10.07;1.77;;;29.60;99.70;;;;;;5072570;28;20394;-56
2022/06/28 09:02:23;;;;;;;6.65;1.90;;;29.80;98.90;;;;;;5072599;28;20383;-57
2022/06/28 09:04:51;;;;;;;6.40;1.10;;;30.00;99.30;;;;;;5071024;28;20040;-56
2022/06/28 09:07:17;;;;;;;8.13;1.60;;;30.20;97.60;;;;;;5072273;28;20036;-55
2022/06/28 09:09:43;;;;;;;5.90;1.17;;;30.10;97.90;;;;;;5072451;28;20036;-57
2022/06/28 09:12:10;;;;;;;6.90;1.75;;;29.90;97.10;;;;;;5070623;28;20082;-56
2022/06/28 09:14:35;;;;;;;7.90;1.65;;;29.00;98.00;;;;;;5072367;28;20041;-57
2022/06/28 09:17:21;;;;;;;4.68;1.30;;;28.30;99.30;;;;;;5072053;28;20063;-56
2022/06/28 09:19:48;;;;;;;5.53;1.40;;;27.30;97.10;;;;;;5071968;28;20048;-56
2022/06/28 09:22:31;;;;;;;5.35;1.10;;;26.60;99.10;;;;;;5072297;28;20037;-57
2022/06/28 09:24:57;;;;;;;4.97;1.48;;;26.10;99.00;;;;;;5072216;28;20446;-57
2022/06/28 09:27:37;;;;;;;5.70;1.70;;;25.90;99.90;;;;;;5072066;28;20444;-57
2022/06/28 09:30:06;;;;;;;9.88;1.70;;;25.50;99.90;;;;;;5071744;28;20044;-56
2022/06/28 09:32:33;;;;;;;6.70;1.52;;;25.30;99.90;;;;;;5072185;28;20163;-57
2022/06/28 09:35:10;;;;;;;8.68;1.70;;;25.10;99.90;;;;;;5072009;28;20993;-56
2022/06/28 09:37:40;;;;;;;7.88;1.63;;;24.60;99.90;;;;;;5071830;28;20043;-56
2022/06/28 09:40:13;;;;;;;8.80;1.30;;;24.00;99.90;;;;;;5071898;28;20036;-57
2022/06/28 09:42:40;;;;;;;4.57;1.40;;;23.70;99.90;;;;;;5071611;28;20518;-56
2022/06/28 09:45:07;;;;;;;8.32;1.88;;;23.40;99.90;;;;;;5072058;28;20383;-57
2022/06/28 09:47:33;;;;;;;4.25;1.55;;;23.60;99.90;;;;;;5071684;28;20037;-55
2022/06/28 09:49:59;;;;;;;7.90;1.30;;;23.50;99.90;;;;;;5071692;28;20043;-56
2022/06/28 09:52:29;;;;;;;4.88;1.95;;;24.90;99.90;;;;;;5071817;28;20075;-57
2022/06/28 09:54:56;;;;;;;6.63;1.77;;;25.80;99.90;;;;;;5071759;28;20040;-57
2022/06/28 09:57:24;;;;;;;8.23;2.17;;;26.80;99.90;;;;;;5071673;28;20554;-58
2022/06/28 09:59:53;;;;;;;5.68;1.60;;;27.10;99.90;;;;;;5072107;28;20137;-57
2022/06/28 10:02:18;;;;;;;;;;;26.70;99.90;;;;;;5071364;28;20094;-57
2022/06/28 10:04:46;;;;;;;4.97;1.70;;;26.40;99.90;;;;;;5071864;28;19920;-57
2022/06/28 10:07:12;;;;;;;7.85;2.30;;;26.00;99.90;;;;;;5071831;28;20055;-55
2022/06/28 10:09:39;;;;;;;5.90;1.70;;;25.80;99.90;;;;;;5071854;28;20079;-56
2022/06/28 10:15:01;;;;;;;6.90;1.83;;;28.10;99.70;;;;;;5071508;28;20044;-56
2022/06/28 10:18:00;;;;;;;4.47;1.67;;;29.20;99.80;;;;;;5071509;28;20086;-56
2022/06/28 10:20:28;;;;;;;7.07;2.03;;;29.60;97.70;;;;;;5071640;28;20040;-56
2022/06/28 10:23:20;;;;;;;6.15;2.10;;;30.20;97.20;;;;;;5069360;28;20136;-57
2022/06/28 10:26:05;;;;;;;7.07;1.95;;;30.10;96.60;;;;;;5071544;28;20068;-55
2022/06/28 10:28:41;;;;;;;7.68;1.95;;;30.50;94.20;;;;;;5071294;28;20372;-56
2022/06/28 10:31:24;;;;;;;7.30;1.23;;;30.60;96.30;;;;;;5071156;28;20513;-57
2022/06/28 10:33:55;;;;;;;8.52;1.75;;;30.30;96.10;;;;;;5071297;28;20053;-57
2022/06/28 10:36:23;;;;;;;10.10;1.73;;;30.20;95.00;;;;;;5071268;28;20044;-58
2022/06/28 10:39:06;;;;;;;7.18;2.38;;;30.30;96.70;;;;;;5069945;28;20437;-55
2022/06/28 10:41:48;;;;;;;7.32;1.65;;;30.80;95.20;;;;;;5071220;28;20483;-56
2022/06/28 10:44:20;;;;;;;7.95;1.67;;;30.90;95.20;;;;;;5071198;28;20094;-56
2022/06/28 10:47:10;;;;;;;4.63;1.60;;;30.90;96.00;;;;;;5071224;28;20037;-56
2022/06/28 10:49:52;;;;;;;6.68;1.70;;;29.50;94.00;;;;;;5065820;28;20052;-57
2022/06/28 10:52:22;;;;;;;8.30;2.17;;;29.40;95.30;;;;;;5071001;28;20654;-56
2022/06/28 10:54:57;;;;;;;5.55;1.40;;;30.50;95.90;;;;;;5071211;28;20067;-57
2022/06/28 10:57:25;;;;;;;4.35;1.40;;;31.30;96.20;;;;;;5071018;28;20078;-57
2022/06/28 10:59:55;;;;;;;7.35;1.70;;;32.00;96.60;;;;;;5070497;28;20395;-57
2022/06/28 11:02:22;;;;;;;6.72;1.42;;;31.00;94.70;;;;;;5070548;28;20120;-57
2022/06/28 11:05:05;;;;;;;6.72;1.50;;;30.70;94.70;;;;;;5054735;28;20036;-57
2022/06/28 11:07:33;;;;;;;6.38;1.92;;;30.00;94.60;;;;;;5068077;28;20451;-57
2022/06/28 11:10:04;;;;;;;12.40;1.55;;;29.40;96.20;;;;;;5068212;28;20170;-57
2022/06/28 11:12:30;;;;;;;5.15;1.67;;;30.10;95.60;;;;;;5072289;28;20051;-56
2022/06/28 11:14:59;;;;;;;7.47;1.52;;;30.00;95.30;;;;;;5073679;28;20453;-57
2022/06/28 11:17:30;;;;;;;8.45;2.03;;;30.90;95.60;;;;;;5074614;28;20040;-57
2022/06/28 11:20:01;;;;;;;8.15;1.95;;;31.00;94.60;;;;;;5074325;28;20379;-57
2022/06/28 11:22:29;;;;;;;7.07;1.70;;;31.70;94.60;;;;;;5074740;28;20757;-56
2022/06/28 11:24:58;;;;;;;8.15;1.63;;;31.70;94.30;;;;;;5074437;28;20094;-57
2022/06/28 11:27:25;;;;;;;6.45;1.50;;;30.80;93.90;;;;;;5074413;28;20047;-57
2022/06/28 11:29:59;;;;;;;4.90;1.55;;;31.20;93.60;;;;;;5074296;28;20123;-56
2022/06/28 11:32:43;;;;;;;8.18;1.67;;;31.30;93.60;;;;;;5074164;28;20521;-56
2022/06/28 11:35:13;;;;;;;7.78;1.63;;;31.10;93.30;;;;;;5074017;28;20032;-55
2022/06/28 11:37:54;;;;;;;7.97;1.70;;;29.70;94.00;;;;;;5074346;28;20043;-58
2022/06/28 11:40:27;;;;;;;9.93;1.65;;;29.00;93.00;;;;;;5074177;28;20036;-56
2022/06/28 11:43:08;;;;;;;8.52;1.45;;;29.30;93.70;;;;;;5074066;28;20036;-56
2022/06/28 11:45:36;;;;;;;6.68;1.80;;;29.80;94.80;;;;;;5073984;28;20086;-56
2022/06/28 11:48:09;;;;;;;5.25;1.42;;;30.30;94.50;;;;;;5074000;28;20041;-56
2022/06/28 11:50:52;;;;;;;7.25;1.55;;;30.90;93.50;;;;;;5073995;28;20045;-56
2022/06/28 11:53:19;;;;;;;6.10;1.40;;;30.90;92.40;;;;;;5073867;28;20032;-56
2022/06/28 11:55:48;;;;;;;4.33;1.33;;;31.90;93.20;;;;;;5072609;28;20123;-56
2022/06/28 11:58:17;;;;;;;5.72;1.50;;;32.30;92.40;;;;;;5073715;28;20072;-56
2022/06/28 12:01:01;;;;;;;5.43;1.75;;;33.00;90.60;;;;;;5073627;28;20051;-56
2022/06/28 12:03:27;;;;;;;4.18;1.55;;;32.80;91.20;;;;;;5073739;28;20056;-56
2022/06/28 12:06:00;;;;;;;5.47;1.48;;;33.30;91.70;;;;;;5073622;28;20040;-57
2022/06/28 12:08:52;;;;;;;8.32;1.55;;;33.50;92.50;;;;;;5073410;28;20045;-56
2022/06/28 12:11:37;;;;;;;7.47;1.75;;;33.80;91.20;;;;;;5073903;28;20390;-56
2022/06/28 12:14:02;;;;;;;6.00;2.00;;;33.20;91.50;;;;;;5073398;28;20094;-56
2022/06/28 12:16:35;;;;;;;5.47;1.20;;;33.30;91.40;;;;;;5073410;28;20483;-56
2022/06/28 12:19:03;;;;;;;4.28;1.38;;;33.10;90.40;;;;;;5073144;28;20047;-56
2022/06/28 12:21:29;;;;;;;6.97;1.80;;;33.50;91.30;;;;;;5073405;28;20182;-56
2022/06/28 12:23:56;;;;;;;6.57;1.40;;;33.00;90.00;;;;;;5072501;28;20045;-56
2022/06/28 12:26:38;;;;;;;5.28;1.20;;;31.80;89.40;;;;;;5073300;28;20123;-57
2022/06/28 12:29:03;;;;;;;5.30;1.42;;;31.50;90.20;;;;;;5071928;28;20040;-56
2022/06/28 12:31:32;;;;;;;5.25;1.58;;;31.50;89.70;;;;;;5072769;28;20059;-56
2022/06/28 12:33:58;;;;;;;4.25;1.27;;;31.50;91.00;;;;;;5073077;28;20127;-55
2022/06/28 12:36:23;;;;;;;3.35;1.15;;;30.80;91.00;;;;;;5073044;28;20028;-56
2022/06/28 12:38:49;;;;;;;6.65;1.48;;;30.10;90.70;;;;;;5072877;28;20037;-56
2022/06/28 12:41:15;;;;;;;4.00;0.88;;;29.80;91.80;;;;;;5072830;28;20039;-56
2022/06/28 12:43:40;;;;;;;4.85;1.55;;;29.40;92.10;;;;;;5072892;28;20039;-55
2022/06/28 12:46:06;;;;;;;6.03;1.65;;;29.00;92.00;;;;;;5072747;28;20380;-56
2022/06/28 12:48:32;;;;;;;5.80;1.33;;;29.10;92.40;;;;;;5073123;28;20099;-56
2022/06/28 12:50:59;;;;;;;4.97;1.60;;;28.60;92.20;;;;;;5072910;28;20043;-56
2022/06/28 12:53:24;;;;;;;6.15;1.60;;;29.00;91.80;;;;;;5054739;28;20402;-56
2022/06/28 12:55:50;;;;;;;7.75;1.80;;;29.50;91.60;;;;;;5072550;28;20040;-57